Allenwood, New York
Current Conditions -  °F | °C
As of 12:51 AM on Saturday 25 Oct 2014 (Local Time) from KLGA Reporting Station
Few Clouds Few Clouds  
Wind Chill: 14°   Ceiling: Unl
Heat Index: 14°   Visibility: 10mi
Dew Point:   Wind: 8mph
Humidity: 51%   Direction: 330°NNW
Pressure: 29.84"   Gusts: NA
Location:  40.786°N, 73.7291°W
Report Text: KLGA 250451Z 33007KT 10SM FEW250 14/04 A2984 RMK AO2 SLP104 T01390039 401670106
Loading
Personal Weather Stations






























Interactive Weather Map
Tropical Storm Tracking
New forecast layout! Learn more

10-Day Weather Forecast

Advertisements
Track Severe Weather on mobile